Time;durP1;ratioP1;P1;durP2;ratioP2;P2;SDS_P1;SDS_P2;PMS_P1;PMS_P2;Temp;Humidity;BMP_temperature;BMP_pressure;BME280_temperature;BME280_humidity;BME280_pressure;Samples;Min_cycle;Max_cycle;Signal;HPM_P1;HPM_P2
2024/04/11 00:00:56;;;;;;;4.67;1.97;;;;;;;3.73;100.00;101345.34;5409103;26;20235;-63
2024/04/11 00:03:21;;;;;;;2.90;1.83;;;;;;;3.65;100.00;101351.41;5402895;26;20238;-62
2024/04/11 00:05:47;;;;;;;7.43;1.80;;;;;;;3.62;100.00;101346.38;5404030;26;21298;-64
2024/04/11 00:08:12;;;;;;;4.43;1.47;;;;;;;3.64;100.00;101344.41;5381713;26;20244;-63
2024/04/11 00:10:37;;;;;;;3.33;1.20;;;;;;;3.52;100.00;101338.41;5392332;26;20251;-63
2024/04/11 00:13:03;;;;;;;2.60;1.60;;;;;;;3.40;100.00;101335.88;5405346;26;20278;-63
2024/04/11 00:15:28;;;;;;;2.97;1.70;;;;;;;3.43;99.89;101337.41;5407475;26;20273;-63
2024/04/11 00:17:53;;;;;;;2.97;1.60;;;;;;;3.42;99.79;101343.72;5409105;26;20239;-63
2024/04/11 00:20:20;;;;;;;4.10;1.80;;;;;;;3.28;100.00;101336.16;5407165;26;20239;-63
2024/04/11 00:22:46;;;;;;;3.67;1.70;;;;;;;3.18;100.00;101342.34;5407796;26;20313;-63
2024/04/11 00:25:13;;;;;;;2.60;1.60;;;;;;;3.16;100.00;101340.78;5409510;26;20719;-63
2024/04/11 00:27:38;;;;;;;1.43;1.33;;;;;;;3.00;100.00;101341.34;5409622;26;20814;-63
2024/04/11 00:30:04;;;;;;;1.60;1.50;;;;;;;2.95;100.00;101339.09;5437147;26;20582;-64
2024/04/11 00:32:29;;;;;;;2.43;1.57;;;;;;;2.99;100.00;101340.50;5407728;26;20235;-64
2024/04/11 00:34:55;;;;;;;2.30;1.67;;;;;;;2.89;100.00;101345.00;5407288;26;20833;-63
2024/04/11 00:37:22;;;;;;;2.20;1.50;;;;;;;2.80;100.00;101341.31;5407739;26;20842;-64
2024/04/11 00:39:48;;;;;;;4.27;1.60;;;;;;;2.85;100.00;101344.41;5408442;26;20805;-63
2024/04/11 00:42:13;;;;;;;3.23;1.80;;;;;;;2.87;100.00;101352.25;5406334;26;20231;-64
2024/04/11 00:44:39;;;;;;;3.37;2.03;;;;;;;2.84;100.00;101347.22;5408900;26;20266;-63
2024/04/11 00:47:09;;;;;;;2.47;1.50;;;;;;;2.81;100.00;101329.69;5408441;26;20239;-64
2024/04/11 00:49:39;;;;;;;3.33;1.60;;;;;;;2.69;100.00;101328.13;5406846;26;20232;-64
2024/04/11 00:52:08;;;;;;;2.13;1.40;;;;;;;2.54;100.00;101338.31;5408952;26;20331;-63
2024/04/11 00:54:35;;;;;;;2.57;1.73;;;;;;;2.54;100.00;101335.66;5405935;26;20789;-64
2024/04/11 00:57:03;;;;;;;4.70;1.50;;;;;;;2.57;100.00;101341.56;5407961;26;20340;-64
2024/04/11 00:59:28;;;;;;;2.80;1.77;;;;;;;2.54;100.00;101338.31;5409870;26;20243;-64
2024/04/11 01:01:53;;;;;;;2.33;1.70;;;;;;;2.59;100.00;101344.06;5411295;26;20740;-64
2024/04/11 01:04:19;;;;;;;3.13;1.80;;;;;;;2.62;100.00;101344.66;5405742;26;20239;-64
2024/04/11 01:07:06;;;;;;;3.90;1.80;;;;;;;2.56;100.00;101342.53;5408698;26;20270;-64
2024/04/11 01:09:39;;;;;;;3.33;1.53;;;;;;;2.53;100.00;101337.50;5411983;26;21091;-64
2024/04/11 01:12:07;;;;;;;2.23;1.67;;;;;;;2.48;100.00;101335.22;5440738;26;20235;-64
2024/04/11 01:14:32;;;;;;;3.67;1.70;;;;;;;2.44;100.00;101328.50;5411886;26;20331;-64
2024/04/11 01:16:57;;;;;;;2.67;1.67;;;;;;;2.43;100.00;101331.31;5411663;26;20278;-64
2024/04/11 01:19:25;;;;;;;1.40;1.30;;;;;;;2.33;100.00;101337.44;5412373;26;20265;-64
2024/04/11 01:21:51;;;;;;;2.27;1.80;;;;;;;2.09;100.00;101337.75;5412774;26;20301;-64
2024/04/11 01:24:16;;;;;;;2.37;1.53;;;;;;;2.13;100.00;101346.28;5440807;26;20250;-64
2024/04/11 01:26:42;;;;;;;3.20;1.80;;;;;;;2.20;100.00;101342.97;5412254;26;20239;-64
2024/04/11 01:29:07;;;;;;;3.87;1.30;;;;;;;2.20;100.00;101348.28;5412965;26;20231;-64
2024/04/11 01:31:33;;;;;;;3.50;1.37;;;;;;;2.20;100.00;101347.44;5412182;26;20274;-64
2024/04/11 01:33:59;;;;;;;2.40;1.60;;;;;;;2.22;100.00;101338.38;5412809;26;20344;-64
2024/04/11 01:36:24;;;;;;;1.93;1.37;;;;;;;2.26;100.00;101335.47;5412817;26;20247;-65
2024/04/11 01:38:50;;;;;;;2.23;1.50;;;;;;;2.23;100.00;101336.53;5413257;26;20747;-64
2024/04/11 01:41:15;;;;;;;3.17;1.73;;;;;;;2.23;100.00;101336.53;5441430;26;20265;-64
2024/04/11 01:43:40;;;;;;;2.23;1.60;;;;;;;2.14;100.00;101335.53;5412994;26;20336;-65
2024/04/11 01:46:07;;;;;;;1.47;1.37;;;;;;;2.14;100.00;101332.03;5412540;26;20281;-63
2024/04/11 01:48:33;;;;;;;2.40;1.53;;;;;;;2.06;100.00;101332.72;5407886;26;20332;-64
2024/04/11 01:50:58;;;;;;;5.57;1.90;;;;;;;2.10;100.00;101325.31;5412574;26;20247;-64
2024/04/11 01:53:23;;;;;;;2.90;1.73;;;;;;;2.02;100.00;101320.66;5410767;26;20753;-64
2024/04/11 01:55:49;;;;;;;2.73;1.73;;;;;;;2.03;100.00;101322.34;5411446;26;20274;-64
2024/04/11 01:58:17;;;;;;;2.00;1.50;;;;;;;2.03;100.00;101327.66;5435401;26;20355;-63
2024/04/11 02:00:43;;;;;;;3.17;1.93;;;;;;;1.91;100.00;101325.09;5411403;26;20337;-63
2024/04/11 02:03:13;;;;;;;3.87;1.70;;;;;;;1.82;100.00;101333.84;5411992;26;20278;-63
2024/04/11 02:05:41;;;;;;;2.83;1.83;;;;;;;1.82;100.00;101336.50;5412208;26;20298;-63
2024/04/11 02:08:06;;;;;;;2.40;2.00;;;;;;;1.82;100.00;101340.97;5440999;26;20666;-63
2024/04/11 02:10:32;;;;;;;2.00;1.70;;;;;;;1.79;100.00;101336.75;5406390;26;20231;-63
2024/04/11 02:12:58;;;;;;;1.87;1.60;;;;;;;1.81;100.00;101337.47;5409300;26;20290;-63
2024/04/11 02:15:24;;;;;;;2.23;2.03;;;;;;;1.83;100.00;101338.16;5403422;26;20727;-62
2024/04/11 02:17:49;;;;;;;2.27;1.70;;;;;;;1.81;100.00;101345.44;5408859;26;20897;-63
2024/04/11 02:20:16;;;;;;;2.47;1.77;;;;;;;1.81;100.00;101337.47;5410477;26;20239;-64
2024/04/11 02:22:42;;;;;;;3.43;1.60;;;;;;;1.83;100.00;101345.31;5439119;26;20243;-64
2024/04/11 02:25:07;;;;;;;3.30;1.63;;;;;;;1.86;100.00;101353.84;5411883;26;20289;-62
2024/04/11 02:27:34;;;;;;;5.13;2.07;;;;;;;1.85;100.00;101351.34;5409936;26;20235;-63
2024/04/11 02:29:59;;;;;;;1.93;1.73;;;;;;;1.85;100.00;101344.19;5411171;26;20235;-64
2024/04/11 02:32:27;;;;;;;2.03;1.80;;;;;;;1.83;100.00;101346.13;5411523;26;20273;-63
2024/04/11 02:34:52;;;;;;;1.93;1.50;;;;;;;1.73;100.00;101342.59;5410831;26;20235;-64
2024/04/11 02:37:18;;;;;;;2.17;1.50;;;;;;;1.69;100.00;101328.75;5411222;26;20335;-64
2024/04/11 02:39:43;;;;;;;3.40;1.60;;;;;;;1.60;100.00;101338.34;5409499;26;20263;-64
2024/04/11 02:42:08;;;;;;;2.50;1.60;;;;;;;1.52;100.00;101337.28;5410998;26;20239;-64
2024/04/11 02:44:34;;;;;;;1.87;1.20;;;;;;;1.32;100.00;101345.13;5409901;26;20274;-63
2024/04/11 02:47:01;;;;;;;2.27;1.43;;;;;;;1.29;100.00;101351.50;5438551;26;20247;-64
2024/04/11 02:49:29;;;;;;;2.37;1.60;;;;;;;1.38;100.00;101352.56;5410762;26;20235;-65
2024/04/11 02:51:55;;;;;;;1.57;1.47;;;;;;;1.36;100.00;101354.50;5410076;26;20231;-65
2024/04/11 02:54:20;;;;;;;1.37;1.27;;;;;;;1.30;100.00;101361.16;5411093;26;20278;-65
2024/04/11 02:56:46;;;;;;;1.60;1.50;;;;;;;1.36;100.00;101361.59;5409657;26;20289;-64
2024/04/11 02:59:12;;;;;;;3.13;2.00;;;;;;;1.39;100.00;101366.66;5409586;26;20243;-64
2024/04/11 03:01:38;;;;;;;2.13;1.50;;;;;;;1.41;100.00;101364.72;5411049;26;20298;-65
2024/04/11 03:04:03;;;;;;;2.13;1.37;;;;;;;1.31;100.00;101354.88;5411373;26;20335;-64
2024/04/11 03:06:31;;;;;;;5.30;1.73;;;;;;;1.26;100.00;101362.38;5410250;26;20271;-65
2024/04/11 03:08:58;;;;;;;1.83;1.17;;;;;;;1.08;100.00;101369.19;5412000;26;20235;-64
2024/04/11 03:11:25;;;;;;;1.20;1.20;;;;;;;1.13;100.00;101367.03;5411423;26;20500;-64
2024/04/11 03:13:55;;;;;;;2.40;1.80;;;;;;;1.10;100.00;101378.69;5402186;26;20307;-64
2024/04/11 03:16:22;;;;;;;2.10;1.67;;;;;;;1.16;100.00;101377.38;5409210;26;20243;-64
2024/04/11 03:18:47;;;;;;;1.63;1.53;;;;;;;1.16;100.00;101387.97;5438831;26;21606;-64
2024/04/11 03:21:12;;;;;;;1.63;1.53;;;;;;;1.18;100.00;101383.38;5408880;26;20247;-64
2024/04/11 03:23:38;;;;;;;3.23;1.53;;;;;;;1.12;100.00;101386.56;5410175;26;20340;-64
2024/04/11 03:26:04;;;;;;;3.27;1.93;;;;;;;1.14;100.00;101384.63;5410949;26;20243;-63
2024/04/11 03:28:29;;;;;;;1.83;1.50;;;;;;;1.12;100.00;101386.56;5410959;26;20343;-65
2024/04/11 03:31:04;;;;;;;2.17;1.50;;;;;;;1.09;100.00;101389.44;5406513;26;20737;-65
2024/04/11 03:33:33;;;;;;;1.80;1.40;;;;;;;1.10;100.00;101388.47;5400801;26;20281;-64
2024/04/11 03:36:01;;;;;;;2.17;1.30;;;;;;;1.12;100.00;101399.81;5409161;26;20770;-64
2024/04/11 03:38:31;;;;;;;2.07;1.30;;;;;;;1.07;100.00;101405.47;5407326;26;20348;-64
2024/04/11 03:41:10;;;;;;;1.83;1.60;;;;;;;1.07;100.00;101407.28;5407847;26;20282;-65
2024/04/11 03:43:37;;;;;;;1.63;1.30;;;;;;;1.02;100.00;101403.19;5405207;26;20269;-65
2024/04/11 03:46:04;;;;;;;2.37;1.53;;;;;;;1.00;100.00;101402.47;5396700;26;20336;-65
2024/04/11 03:48:30;;;;;;;2.20;1.73;;;;;;;0.91;100.00;101405.88;5408414;26;20770;-65
2024/04/11 03:50:56;;;;;;;1.70;1.40;;;;;;;0.82;100.00;101401.31;5406401;26;20239;-65
2024/04/11 03:53:22;;;;;;;5.30;1.73;;;;;;;0.81;100.00;101402.28;5408853;26;20247;-64
2024/04/11 03:55:47;;;;;;;2.67;2.00;;;;;;;0.81;100.00;101400.47;5437369;26;20351;-64
2024/04/11 03:58:16;;;;;;;3.43;1.40;;;;;;;0.76;100.00;101402.66;5406366;26;20620;-65
2024/04/11 04:00:45;;;;;;;2.80;1.70;;;;;;;0.71;100.00;101410.94;5401109;26;20299;-65
2024/04/11 04:03:11;;;;;;;2.50;1.83;;;;;;;0.67;100.00;101403.38;5391620;26;20682;-66
2024/04/11 04:05:36;;;;;;;3.17;1.40;;;;;;;0.67;100.00;101417.47;5396214;26;20235;-66
2024/04/11 04:08:04;;;;;;;2.53;1.30;;;;;;;0.66;100.00;101409.66;5396108;26;21119;-66
2024/04/11 04:10:31;;;;;;;3.97;1.80;;;;;;;0.62;100.00;101416.97;5401042;26;20282;-65
2024/04/11 04:12:58;;;;;;;2.47;1.40;;;;;;;0.58;100.00;101419.03;5434952;26;20328;-65
2024/04/11 04:15:24;;;;;;;4.20;1.57;;;;;;;0.56;100.00;101415.66;5404180;26;20668;-65
2024/04/11 04:17:51;;;;;;;3.33;1.70;;;;;;;0.53;100.00;101417.72;5372911;26;20235;-65
2024/04/11 04:20:16;;;;;;;2.97;1.70;;;;;;;0.52;100.00;101416.88;5401307;26;20243;-65
2024/04/11 04:22:42;;;;;;;8.23;2.10;;;;;;;0.55;100.00;101418.44;5397412;26;20324;-65
2024/04/11 04:25:11;;;;;;;1.40;1.30;;;;;;;0.53;100.00;101423.03;5398147;26;20719;-65
2024/04/11 04:27:39;;;;;;;2.63;2.03;;;;;;;0.47;100.00;101426.16;5399387;26;20961;-65
2024/04/11 04:30:09;;;;;;;2.67;1.70;;;;;;;0.52;100.00;101434.59;5399904;26;20286;-65
2024/04/11 04:32:35;;;;;;;3.77;1.37;;;;;;;0.54;100.00;101424.72;5395280;26;20329;-65
2024/04/11 04:35:01;;;;;;;2.70;1.93;;;;;;;0.46;100.00;101437.72;5410900;26;20244;-65
2024/04/11 04:37:26;;;;;;;3.77;1.80;;;;;;;0.46;100.00;101432.41;5409361;26;20337;-65
2024/04/11 04:39:52;;;;;;;3.63;1.80;;;;;;;0.46;100.00;101432.41;5408965;26;20340;-65
2024/04/11 04:42:17;;;;;;;2.53;1.67;;;;;;;0.47;100.00;101432.28;5398527;26;20753;-66
2024/04/11 04:44:43;;;;;;;5.37;1.87;;;;;;;0.41;100.00;101444.22;5400648;26;20243;-66
2024/04/11 04:47:16;;;;;;;3.23;1.47;;;;;;;0.42;100.00;101445.91;5400382;26;20295;-66
2024/04/11 04:49:44;;;;;;;2.63;1.97;;;;;;;0.34;100.00;101443.00;5394084;26;20240;-66
2024/04/11 04:52:10;;;;;;;3.23;2.13;;;;;;;0.39;100.00;101435.53;5404490;26;20351;-65
2024/04/11 04:54:35;;;;;;;3.20;1.50;;;;;;;0.30;100.00;101444.19;5408385;26;20235;-66
2024/04/11 04:57:01;;;;;;;2.97;1.63;;;;;;;0.24;100.00;101439.38;5439571;26;20247;-66
2024/04/11 04:59:26;;;;;;;1.40;1.30;;;;;;;0.19;100.00;101447.69;5404253;26;20866;-66
2024/04/11 05:01:53;;;;;;;5.00;1.90;;;;;;;0.22;100.00;101442.16;5407363;26;20274;-65
2024/04/11 05:04:18;;;;;;;3.80;1.93;;;;;;;0.28;100.00;101444.34;5407853;26;20235;-65
2024/04/11 05:06:44;;;;;;;2.60;1.63;;;;;;;0.37;100.00;101450.72;5407802;26;20277;-66
2024/04/11 05:09:10;;;;;;;2.57;1.60;;;;;;;0.43;100.00;101450.22;5402794;26;20235;-65
2024/04/11 05:11:35;;;;;;;4.93;1.50;;;;;;;0.51;100.00;101454.91;5406823;26;20278;-64
2024/04/11 05:14:07;;;;;;;3.20;1.90;;;;;;;0.58;100.00;101452.66;5409938;26;20269;-64
2024/04/11 05:16:33;;;;;;;4.40;1.80;;;;;;;0.69;100.00;101446.50;5411010;26;20243;-63
2024/04/11 05:18:58;;;;;;;2.73;1.77;;;;;;;0.79;100.00;101454.56;5412004;26;20281;-64
2024/04/11 05:21:24;;;;;;;3.43;1.73;;;;;;;0.79;100.00;101446.59;5398270;26;20731;-64
2024/04/11 05:23:50;;;;;;;2.47;2.07;;;;;;;0.89;100.00;101460.81;5439619;26;20231;-64
2024/04/11 05:26:22;;;;;;;2.37;2.00;;;;;;;1.01;100.00;101456.34;5411612;26;20282;-63
2024/04/11 05:28:48;;;;;;;1.70;1.60;;;;;;;1.03;100.00;101465.88;5409428;26;20243;-64
2024/04/11 05:31:17;;;;;;;3.03;1.83;;;;;;;1.14;100.00;101461.50;5402651;26;20231;-64
2024/04/11 05:33:47;;;;;;;2.07;1.73;;;;;;;1.48;100.00;101467.53;5406943;26;20235;-64
2024/04/11 05:36:17;;;;;;;2.87;2.10;;;;;;;1.50;100.00;101467.44;5400189;26;20293;-64
2024/04/11 05:38:44;;;;;;;3.20;1.70;;;;;;;1.56;100.00;101464.28;5409771;26;20273;-64
2024/04/11 05:41:10;;;;;;;3.23;1.80;;;;;;;1.55;100.00;101461.72;5390790;26;20243;-64
2024/04/11 05:43:47;;;;;;;3.40;2.00;;;;;;;1.59;100.00;101464.03;5392008;26;20232;-63
2024/04/11 05:46:13;;;;;;;4.13;1.80;;;;;;;1.63;100.00;101470.78;5381814;26;20286;-64
2024/04/11 05:48:40;;;;;;;2.67;2.07;;;;;;;1.69;100.00;101474.72;5408559;26;20236;-64
2024/04/11 05:51:06;;;;;;;2.17;1.50;;;;;;;1.62;100.00;101473.53;5412283;26;20343;-63
2024/04/11 05:53:37;;;;;;;2.17;1.93;;;;;;;1.66;100.00;101476.78;5412639;26;20243;-64
2024/04/11 05:56:08;;;;;;;3.40;1.70;;;;;;;1.79;100.00;101480.09;5412715;26;20290;-65
2024/04/11 05:58:35;;;;;;;7.37;2.13;;;;;;;1.96;100.00;101476.06;5408114;26;20287;-64
2024/04/11 06:01:05;;;;;;;3.77;1.70;;;;;;;2.07;100.00;101478.63;5409299;26;20774;-64
2024/04/11 06:03:40;;;;;;;4.23;2.07;;;;;;;2.20;100.00;101482.91;5403366;26;20274;-64
2024/04/11 06:06:13;;;;;;;2.63;1.87;;;;;;;2.30;100.00;101482.97;5409603;26;20769;-64
2024/04/11 06:08:41;;;;;;;3.53;2.13;;;;;;;2.42;100.00;101489.06;5411225;26;20235;-62
2024/04/11 06:11:06;;;;;;;2.20;1.73;;;;;;;2.37;100.00;101489.44;5410951;26;20355;-64
2024/04/11 06:13:32;;;;;;;5.60;2.10;;;;;;;2.46;100.00;101490.47;5411961;26;20739;-65
2024/04/11 06:15:59;;;;;;;5.77;2.53;;;;;;;2.60;100.00;101491.94;5405538;26;20294;-64
2024/04/11 06:18:28;;;;;;;9.57;2.90;;;;;;;2.82;100.00;101496.22;5411728;26;20231;-64
2024/04/11 06:20:55;;;;;;;3.43;2.03;;;;;;;3.09;100.00;101487.66;5410662;26;20348;-64
2024/04/11 06:23:21;;;;;;;1.60;1.50;;;;;;;3.29;100.00;101478.84;5408797;26;20239;-64
2024/04/11 06:25:47;;;;;;;3.23;1.90;;;;;;;3.47;100.00;101476.41;5411251;26;20290;-64
2024/04/11 06:28:15;;;;;;;2.97;1.73;;;;;;;3.56;100.00;101475.53;5410280;26;20236;-64
2024/04/11 06:30:41;;;;;;;4.40;2.40;;;;;;;4.18;98.18;101480.53;5411944;26;20727;-64
2024/04/11 06:33:11;;;;;;;3.73;2.30;;;;;;;5.40;90.93;101478.75;5411073;26;20722;-64
2024/04/11 06:35:36;;;;;;;3.00;1.60;;;;;;;7.09;80.38;101476.91;5412174;26;20289;-64
2024/04/11 06:38:03;;;;;;;3.80;1.80;;;;;;;8.44;72.81;101487.41;5410842;26;20247;-64
2024/04/11 06:40:30;;;;;;;11.37;2.10;;;;;;;9.57;66.71;101484.56;5411741;26;20278;-64
2024/04/11 06:42:59;;;;;;;20.87;2.83;;;;;;;10.01;68.12;101471.50;5411810;26;20239;-64
2024/04/11 06:45:24;;;;;;;3.07;1.53;;;;;;;10.34;61.79;101473.84;5412081;26;20227;-64
2024/04/11 06:47:50;;;;;;;2.13;1.70;;;;;;;11.01;63.22;101477.50;5412017;26;20290;-64
2024/04/11 06:50:16;;;;;;;3.63;1.70;;;;;;;11.55;56.93;101484.31;5410921;26;20238;-65
2024/04/11 06:52:45;;;;;;;7.03;1.70;;;;;;;11.37;56.71;101486.63;5409608;26;20231;-64
2024/04/11 06:55:14;;;;;;;4.03;1.73;;;;;;;11.34;56.87;101482.44;5410336;26;20278;-64
2024/04/11 06:57:44;;;;;;;16.07;2.93;;;;;;;11.67;60.77;101481.97;5410402;26;20581;-64
2024/04/11 07:00:28;;;;;;;9.83;1.90;;;;;;;12.51;53.84;101484.91;5410840;26;20236;-64
2024/04/11 07:02:54;;;;;;;3.80;1.90;;;;;;;13.17;50.70;101497.09;5410250;26;20239;-64
2024/04/11 07:05:22;;;;;;;13.37;2.43;;;;;;;12.93;54.89;101486.81;5409363;26;20293;-64
2024/04/11 07:07:54;;;;;;;9.53;1.53;;;;;;;14.14;49.30;101487.06;5407793;26;20247;-64
2024/04/11 07:10:25;;;;;;;1.40;1.30;;;;;;;14.69;46.78;101478.69;5410486;26;20311;-63
2024/04/11 07:12:53;;;;;;;7.10;1.97;;;;;;;14.70;47.09;101479.53;5407885;26;20235;-64
2024/04/11 07:15:19;;;;;;;5.73;1.90;;;;;;;15.74;44.81;101479.44;5412419;26;20247;-64
2024/04/11 07:17:57;;;;;;;4.87;1.50;;;;;;;16.51;41.90;101480.22;5412148;26;20246;-64
2024/04/11 07:20:25;;;;;;;2.47;1.70;;;;;;;16.91;40.83;101468.91;5439600;26;20230;-64
2024/04/11 07:22:55;;;;;;;4.50;1.80;;;;;;;17.53;40.64;101478.78;5410554;26;20239;-65
2024/04/11 07:25:21;;;;;;;9.17;3.10;;;;;;;18.06;41.74;101473.56;5439407;26;20355;-65
2024/04/11 07:27:48;;;;;;;7.93;2.47;;;;;;;18.78;37.79;101461.53;5410854;26;20351;-65
2024/04/11 07:30:13;;;;;;;5.83;1.83;;;;;;;19.40;36.24;101472.84;5410041;26;20239;-65
2024/04/11 07:32:40;;;;;;;4.97;1.87;;;;;;;19.98;34.95;101470.84;5409631;26;20239;-65
2024/04/11 07:35:06;;;;;;;5.23;2.00;;;;;;;20.24;35.41;101470.41;5408122;26;20239;-65
2024/04/11 07:37:32;;;;;;;3.43;1.60;;;;;;;20.85;33.60;101473.16;5410932;26;20578;-65
2024/04/11 07:40:00;;;;;;;2.80;1.50;;;;;;;20.93;32.86;101474.63;5411021;26;20231;-64
2024/04/11 07:42:48;;;;;;;3.47;1.63;;;;;;;21.15;32.88;101471.88;5409749;26;20322;-62
2024/04/11 07:45:17;;;;;;;2.40;1.47;;;;;;;22.07;31.16;101464.75;5406327;26;20239;-61
2024/04/11 07:47:43;;;;;;;2.60;1.67;;;;;;;21.96;31.02;101466.59;5410216;26;20281;-61
2024/04/11 07:50:11;;;;;;;4.13;1.50;;;;;;;21.75;31.38;101463.72;5410550;26;20239;-61
2024/04/11 07:52:37;;;;;;;2.73;1.60;;;;;;;22.56;30.81;101471.91;5408474;26;20243;-61
2024/04/11 07:55:03;;;;;;;1.90;1.40;;;;;;;22.88;30.21;101470.97;5404700;26;20269;-60
2024/04/11 07:57:29;;;;;;;3.17;1.60;;;;;;;22.76;30.56;101456.66;5411467;26;20247;-60
2024/04/11 07:59:55;;;;;;;5.13;1.93;;;;;;;22.08;30.86;101452.69;5408885;26;20235;-61
2024/04/11 08:02:21;;;;;;;34.40;4.50;;;;;;;22.20;32.27;101453.31;5408751;26;20856;-61
2024/04/11 08:04:49;;;;;;;48.33;6.43;;;;;;;23.26;31.49;101445.28;5404722;26;20274;-61
2024/04/11 08:07:15;;;;;;;4.00;2.15;;;;;;;24.61;28.74;101451.44;5405027;26;20369;-61
2024/04/11 08:09:44;;;;;;;4.22;2.13;;;;;;;24.94;27.83;101455.44;5404999;26;20343;-61
2024/04/11 08:12:10;;;;;;;2.08;1.60;;;;;;;24.70;28.15;101455.25;5404513;26;20243;-61
2024/04/11 08:14:35;;;;;;;22.85;2.75;;;;;;;24.17;29.31;101452.94;5404753;26;20287;-61
2024/04/11 08:17:00;;;;;;;4.03;1.40;;;;;;;22.91;29.95;101455.88;5403808;26;20793;-61
2024/04/11 08:19:26;;;;;;;3.05;1.52;;;;;;;22.52;31.17;101465.31;5405768;26;20227;-61
2024/04/11 08:21:51;;;;;;;4.47;1.67;;;;;;;22.77;31.15;101455.56;5398871;26;20239;-61
2024/04/11 08:24:16;;;;;;;2.88;1.80;;;;;;;22.49;32.83;101463.09;5387721;26;20240;-61
2024/04/11 08:26:42;;;;;;;2.90;1.65;;;;;;;22.21;32.70;101465.13;5403071;26;20239;-61
2024/04/11 10:15:37;;;;;;;5.53;1.10;;;;;;;21.97;28.50;101464.69;5404162;25;20687;-52
2024/04/11 10:18:08;;;;;;;4.60;1.17;;;;;;;22.80;26.59;101460.50;5396053;26;20244;-50
2024/04/11 10:21:02;;;;;;;1.38;1.00;;;;;;;22.59;26.64;101454.13;5355902;26;20260;-50
2024/04/11 10:23:37;;;;;;;1.60;0.75;;;;;;;23.09;26.86;101449.03;5387075;26;20251;-51
2024/04/11 10:26:10;;;;;;;1.45;0.82;;;;;;;22.10;26.11;101457.91;5391400;26;20337;-51
2024/04/11 10:28:41;;;;;;;2.15;0.70;;;;;;;21.92;26.92;101452.59;5392717;26;20281;-50
2024/04/11 10:31:11;;;;;;;2.60;1.00;;;;;;;21.57;27.22;101448.44;5399768;26;20652;-52
2024/04/11 10:33:47;;;;;;;1.17;1.02;;;;;;;22.32;26.43;101449.53;5402528;26;20603;-51
2024/04/11 10:36:13;;;;;;;3.15;0.80;;;;;;;22.70;25.74;101444.00;5398898;26;20247;-51
2024/04/11 10:38:41;;;;;;;1.53;0.97;;;;;;;22.71;26.51;101435.47;5398685;26;20240;-52
2024/04/11 10:41:08;;;;;;;1.77;0.88;;;;;;;22.85;25.33;101441.31;5366669;26;20251;-49
2024/04/11 10:43:36;;;;;;;1.30;0.77;;;;;;;22.82;25.40;101438.28;5394478;26;20251;-50
2024/04/11 10:46:05;;;;;;;2.65;0.95;;;;;;;22.56;25.12;101430.75;5393625;26;20231;-51
2024/04/11 10:48:33;;;;;;;0.82;0.82;;;;;;;22.05;25.62;101439.53;5394891;26;20279;-51
2024/04/11 10:51:00;;;;;;;2.85;1.10;;;;;;;22.08;25.35;101432.69;5394802;26;20236;-50
2024/04/11 10:53:26;;;;;;;1.43;0.80;;;;;;;22.58;24.99;101438.75;5396001;26;20259;-50
2024/04/11 10:55:55;;;;;;;0.60;0.60;;;;;;;22.31;25.07;101435.03;5393560;26;20298;-51
2024/04/11 10:58:28;;;;;;;2.97;0.95;;;;;;;22.45;26.63;101432.66;5394791;26;20252;-54
2024/04/11 11:03:40;;;;;;;1.63;0.77;;;;;;;24.13;25.60;101420.53;5396076;26;20236;-52
2024/04/11 11:06:13;;;;;;;2.05;0.70;;;;;;;25.02;23.63;101427.31;5397395;26;20240;-52
2024/04/11 11:08:45;;;;;;;4.10;1.00;;;;;;;24.43;24.35;101429.78;5397439;26;20239;-51
2024/04/11 11:11:18;;;;;;;3.47;0.60;;;;;;;24.28;24.92;101427.06;5390068;26;20248;-52
2024/04/11 11:13:44;;;;;;;0.90;0.75;;;;;;;24.08;24.09;101417.81;5396274;26;20254;-51
2024/04/11 11:16:20;;;;;;;1.90;0.88;;;;;;;24.55;24.55;101426.69;5383527;26;20286;-53
2024/04/11 11:18:47;;;;;;;3.38;1.00;;;;;;;24.68;24.38;101418.94;5380907;26;20871;-51
2024/04/11 11:21:16;;;;;;;3.28;0.70;;;;;;;24.89;23.37;101419.69;5382936;26;20326;-50
2024/04/11 11:23:45;;;;;;;1.40;0.63;;;;;;;25.22;23.73;101410.94;5383980;26;20271;-50
2024/04/11 11:26:12;;;;;;;0.85;0.85;;;;;;;24.71;24.36;101408.22;5383270;26;22172;-51
2024/04/11 11:28:38;;;;;;;2.25;0.65;;;;;;;24.67;23.64;101406.28;5383598;26;20295;-50
2024/04/11 11:31:04;;;;;;;0.80;0.80;;;;;;;25.30;24.02;101402.06;5350710;26;20337;-50
2024/04/11 11:33:29;;;;;;;2.17;0.95;;;;;;;25.58;23.62;101411.50;5383654;26;20243;-51
2024/04/11 11:36:00;;;;;;;2.17;0.77;;;;;;;25.11;22.56;101400.00;5382563;26;20727;-51
2024/04/11 11:38:25;;;;;;;0.57;0.52;;;;;;;26.33;22.78;101401.09;5381616;26;20240;-50
2024/04/11 11:40:54;;;;;;;1.38;0.73;;;;;;;24.66;23.22;101383.47;5381281;26;20287;-52
2024/04/11 11:43:22;;;;;;;1.48;0.80;;;;;;;24.50;22.59;101390.13;5352264;26;20275;-50
2024/04/11 11:48:35;;;;;;;1.50;0.98;;;;;;;24.44;23.51;101381.06;5376887;26;20283;-50
2024/04/11 11:51:05;;;;;;;3.58;0.85;;;;;;;23.71;22.88;101380.44;5379269;26;20279;-49
2024/04/11 11:53:34;;;;;;;3.45;1.33;;;;;;;24.03;23.13;101367.47;5377783;26;20275;-50
2024/04/11 11:56:05;;;;;;;0.70;0.70;;;;;;;24.02;23.87;101372.16;5376636;26;20271;-50
2024/04/11 11:58:30;;;;;;;2.55;0.70;;;;;;;24.79;23.36;101370.19;5378829;26;20283;-50
2024/04/11 12:00:59;;;;;;;1.52;0.60;;;;;;;25.90;22.21;101371.50;5380165;26;20236;-50
2024/04/11 12:03:31;;;;;;;1.55;1.08;;;;;;;26.13;21.39;101363.53;5350229;26;20609;-50
2024/04/11 12:05:59;;;;;;;1.75;0.77;;;;;;;27.22;21.84;101364.78;5379912;26;20233;-50
2024/04/11 12:08:25;;;;;;;1.95;0.70;;;;;;;28.02;20.73;101359.22;5382872;26;20245;-54
2024/04/11 12:13:31;;;;;;;0.85;0.75;;;;;;;25.14;21.98;101362.81;5376868;26;20711;-51
2024/04/11 12:15:57;;;;;;;2.55;1.30;;;;;;;26.51;21.20;101361.94;5378612;26;21043;-49
2024/04/11 12:18:23;;;;;;;2.70;0.95;;;;;;;26.48;21.47;101357.84;5371718;26;21261;-51
2024/04/11 12:20:51;;;;;;;1.88;0.88;;;;;;;25.22;22.49;101351.19;5374320;26;20237;-54
2024/04/11 12:23:17;;;;;;;1.75;0.77;;;;;;;24.80;23.76;101344.31;5379462;26;20236;-50
2024/04/11 12:25:44;;;;;;;5.10;1.02;;;;;;;24.94;23.31;101339.00;5381237;26;20279;-51
2024/04/11 12:28:11;;;;;;;2.00;1.10;;;;;;;23.62;25.14;101338.97;5379616;26;20240;-52
2024/04/11 12:30:38;;;;;;;1.17;0.70;;;;;;;22.83;24.88;101341.97;5381418;26;20239;-51
2024/04/11 12:33:05;;;;;;;1.98;1.02;;;;;;;21.66;26.53;101339.25;5343238;26;20301;-51
2024/04/11 12:35:41;;;;;;;6.72;1.10;;;;;;;21.70;26.66;101345.03;5369157;26;20606;-49
2024/04/11 12:38:13;;;;;;;1.00;0.90;;;;;;;21.02;26.71;101339.00;5373247;26;20232;-50
2024/04/11 12:40:39;;;;;;;1.63;1.00;;;;;;;21.04;26.85;101330.53;5373305;26;20244;-50
2024/04/11 12:43:05;;;;;;;1.92;0.98;;;;;;;21.29;26.80;101323.59;5375563;26;20270;-50
2024/04/11 12:45:31;;;;;;;2.25;0.90;;;;;;;21.51;27.13;101336.38;5347047;26;20244;-50
2024/04/11 12:48:05;;;;;;;1.92;0.80;;;;;;;21.81;27.39;101318.50;5376906;26;20775;-50
2024/04/11 12:50:36;;;;;;;1.65;0.77;;;;;;;21.86;26.89;101332.22;5374870;26;20240;-50
2024/04/11 12:53:10;;;;;;;4.38;0.80;;;;;;;22.25;25.98;101320.94;5378292;26;20240;-50
2024/04/11 12:55:37;;;;;;;1.08;0.70;;;;;;;22.71;25.79;101324.91;5346713;26;20247;-51
2024/04/11 12:58:06;;;;;;;2.63;0.90;;;;;;;22.81;25.12;101319.47;5373754;26;20260;-51
2024/04/11 13:00:35;;;;;;;2.90;0.80;;;;;;;22.80;26.21;101320.56;5377581;26;20240;-50
2024/04/11 13:03:06;;;;;;;2.97;1.00;;;;;;;23.04;25.29;101317.25;5378413;26;20631;-50
2024/04/11 13:05:51;;;;;;;1.23;0.65;;;;;;;23.00;25.46;101311.50;5379111;26;20311;-51
2024/04/11 13:08:19;;;;;;;2.88;0.95;;;;;;;23.24;24.54;101303.56;5378855;26;20248;-52
2024/04/11 13:10:50;;;;;;;2.10;0.77;;;;;;;23.33;25.28;101303.81;5378337;26;20712;-50
2024/04/11 13:13:19;;;;;;;1.23;0.80;;;;;;;23.09;25.54;101314.53;5348157;26;20233;-49
2024/04/11 13:15:44;;;;;;;0.77;0.60;;;;;;;23.48;24.77;101300.25;5378218;26;20282;-51
2024/04/11 13:18:13;;;;;;;1.73;1.27;;;;;;;23.50;24.77;101298.06;5378245;26;20937;-50
2024/04/11 13:20:39;;;;;;;2.95;1.00;;;;;;;22.91;25.88;101297.50;5374874;26;20278;-49